sensor_id;sensor_type;location;lat;lon;timestamp;pressure;altitude;pressure_sealevel;temperature;humidity
61408;BME280;47274;43.054;25.146;2023-03-18T00:01:05;96057.44;;;-0.37;100.00
61408;BME280;47274;43.054;25.146;2023-03-18T00:03:32;96069.78;;;-0.31;100.00
61408;BME280;47274;43.054;25.146;2023-03-18T00:06:05;96064.75;;;-0.31;100.00
61408;BME280;47274;43.054;25.146;2023-03-18T00:08:30;96056.88;;;-0.25;100.00
61408;BME280;47274;43.054;25.146;2023-03-18T00:10:57;96065.34;;;-0.26;100.00
61408;BME280;47274;43.054;25.146;2023-03-18T00:13:23;96059.97;;;-0.37;100.00
61408;BME280;47274;43.054;25.146;2023-03-18T00:15:50;96061.13;;;-0.44;100.00
61408;BME280;47274;43.054;25.146;2023-03-18T00:18:16;96054.09;;;-0.37;100.00
61408;BME280;47274;43.054;25.146;2023-03-18T00:20:41;96059.59;;;-0.48;100.00
61408;BME280;47274;43.054;25.146;2023-03-18T00:23:07;96053.25;;;-0.38;100.00
61408;BME280;47274;43.054;25.146;2023-03-18T00:25:33;96051.91;;;-0.45;100.00
61408;BME280;47274;43.054;25.146;2023-03-18T00:27:59;96050.59;;;-0.54;100.00
61408;BME280;47274;43.054;25.146;2023-03-18T00:30:24;96042.97;;;-0.52;100.00
61408;BME280;47274;43.054;25.146;2023-03-18T00:32:50;96040.38;;;-0.51;100.00
61408;BME280;47274;43.054;25.146;2023-03-18T00:35:16;96036.97;;;-0.50;100.00
61408;BME280;47274;43.054;25.146;2023-03-18T00:37:42;96036.09;;;-0.49;100.00
61408;BME280;47274;43.054;25.146;2023-03-18T00:40:09;96037.88;;;-0.51;100.00
61408;BME280;47274;43.054;25.146;2023-03-18T00:42:42;96034.16;;;-0.62;100.00
61408;BME280;47274;43.054;25.146;2023-03-18T00:45:12;96032.59;;;-0.65;100.00
61408;BME280;47274;43.054;25.146;2023-03-18T00:47:39;96031.22;;;-0.72;100.00
61408;BME280;47274;43.054;25.146;2023-03-18T00:50:06;96019.28;;;-0.87;100.00
61408;BME280;47274;43.054;25.146;2023-03-18T00:52:32;96022.84;;;-0.93;100.00
61408;BME280;47274;43.054;25.146;2023-03-18T00:54:58;96017.94;;;-0.96;100.00
61408;BME280;47274;43.054;25.146;2023-03-18T00:57:27;96018.22;;;-0.82;100.00
61408;BME280;47274;43.054;25.146;2023-03-18T00:59:53;96016.50;;;-0.81;100.00
61408;BME280;47274;43.054;25.146;2023-03-18T01:02:20;96012.78;;;-0.93;100.00
61408;BME280;47274;43.054;25.146;2023-03-18T01:04:48;96019.59;;;-0.95;100.00
61408;BME280;47274;43.054;25.146;2023-03-18T01:07:15;96009.66;;;-0.98;100.00
61408;BME280;47274;43.054;25.146;2023-03-18T01:09:41;96007.94;;;-0.98;100.00
61408;BME280;47274;43.054;25.146;2023-03-18T01:12:08;96013.06;;;-0.99;100.00
61408;BME280;47274;43.054;25.146;2023-03-18T01:14:35;96013.19;;;-1.02;100.00
61408;BME280;47274;43.054;25.146;2023-03-18T01:17:01;96011.72;;;-1.08;100.00
61408;BME280;47274;43.054;25.146;2023-03-18T01:19:27;96011.41;;;-1.00;100.00
61408;BME280;47274;43.054;25.146;2023-03-18T01:21:53;96009.13;;;-1.06;100.00
61408;BME280;47274;43.054;25.146;2023-03-18T01:24:20;96001.84;;;-0.92;100.00
61408;BME280;47274;43.054;25.146;2023-03-18T01:26:46;96002.56;;;-0.90;100.00
61408;BME280;47274;43.054;25.146;2023-03-18T01:29:12;96001.97;;;-0.95;100.00
61408;BME280;47274;43.054;25.146;2023-03-18T01:31:38;96005.06;;;-0.88;100.00
61408;BME280;47274;43.054;25.146;2023-03-18T01:34:09;96008.72;;;-0.96;100.00
61408;BME280;47274;43.054;25.146;2023-03-18T01:36:42;96010.91;;;-0.88;100.00
61408;BME280;47274;43.054;25.146;2023-03-18T01:39:08;96001.00;;;-0.92;100.00
61408;BME280;47274;43.054;25.146;2023-03-18T01:41:35;96000.94;;;-0.91;100.00
61408;BME280;47274;43.054;25.146;2023-03-18T01:44:01;96000.94;;;-0.91;100.00
61408;BME280;47274;43.054;25.146;2023-03-18T01:46:33;96006.19;;;-0.96;100.00
61408;BME280;47274;43.054;25.146;2023-03-18T01:49:11;95997.78;;;-0.96;100.00
61408;BME280;47274;43.054;25.146;2023-03-18T01:51:39;95998.81;;;-1.00;100.00
61408;BME280;47274;43.054;25.146;2023-03-18T01:54:06;95992.16;;;-1.01;100.00
61408;BME280;47274;43.054;25.146;2023-03-18T01:56:33;95990.38;;;-0.99;100.00
61408;BME280;47274;43.054;25.146;2023-03-18T01:59:01;95997.78;;;-0.96;100.00
61408;BME280;47274;43.054;25.146;2023-03-18T02:01:33;95997.78;;;-0.96;100.00
61408;BME280;47274;43.054;25.146;2023-03-18T02:04:03;95993.59;;;-0.96;100.00
61408;BME280;47274;43.054;25.146;2023-03-18T02:06:30;95993.53;;;-0.94;100.00
61408;BME280;47274;43.054;25.146;2023-03-18T02:08:59;95985.59;;;-0.85;100.00
61408;BME280;47274;43.054;25.146;2023-03-18T02:11:27;95992.75;;;-0.96;100.00
61408;BME280;47274;43.054;25.146;2023-03-18T02:13:57;95987.22;;;-0.84;100.00
61408;BME280;47274;43.054;25.146;2023-03-18T02:16:26;95986.72;;;-0.92;100.00
61408;BME280;47274;43.054;25.146;2023-03-18T02:18:57;95981.81;;;-0.95;100.00
61408;BME280;47274;43.054;25.146;2023-03-18T02:21:42;95992.03;;;-0.98;100.00
61408;BME280;47274;43.054;25.146;2023-03-18T02:24:27;96000.25;;;-0.94;100.00
61408;BME280;47274;43.054;25.146;2023-03-18T02:29:40;96000.19;;;-1.13;100.00
61408;BME280;47274;43.054;25.146;2023-03-18T02:32:12;95995.59;;;-1.04;100.00
61408;BME280;47274;43.054;25.146;2023-03-18T02:34:38;95994.66;;;-1.01;100.00
61408;BME280;47274;43.054;25.146;2023-03-18T02:37:05;95999.94;;;-1.07;100.00
61408;BME280;47274;43.054;25.146;2023-03-18T02:39:34;96009.28;;;-1.09;100.00
61408;BME280;47274;43.054;25.146;2023-03-18T02:42:00;96003.53;;;-1.13;100.00
61408;BME280;47274;43.054;25.146;2023-03-18T02:44:26;96001.97;;;-1.15;100.00
61408;BME280;47274;43.054;25.146;2023-03-18T02:47:22;96007.63;;;-0.90;100.00
61408;BME280;47274;43.054;25.146;2023-03-18T02:49:50;96000.25;;;-0.94;100.00
61408;BME280;47274;43.054;25.146;2023-03-18T02:52:16;96013.34;;;-0.86;100.00
61408;BME280;47274;43.054;25.146;2023-03-18T02:54:42;96004.03;;;-0.84;100.00
61408;BME280;47274;43.054;25.146;2023-03-18T02:57:08;96003.69;;;-0.77;100.00
61408;BME280;47274;43.054;25.146;2023-03-18T02:59:35;96002.19;;;-0.81;100.00
61408;BME280;47274;43.054;25.146;2023-03-18T03:02:01;96008.44;;;-0.89;100.00
61408;BME280;47274;43.054;25.146;2023-03-18T03:04:28;96009.44;;;-0.93;100.00
61408;BME280;47274;43.054;25.146;2023-03-18T03:06:54;96013.69;;;-0.94;100.00
61408;BME280;47274;43.054;25.146;2023-03-18T03:09:33;96016.00;;;-0.89;100.00
61408;BME280;47274;43.054;25.146;2023-03-18T03:11:59;96005.50;;;-0.99;100.00
61408;BME280;47274;43.054;25.146;2023-03-18T03:14:27;96014.63;;;-0.97;100.00
61408;BME280;47274;43.054;25.146;2023-03-18T03:16:57;96012.59;;;-0.88;100.00
61408;BME280;47274;43.054;25.146;2023-03-18T03:19:23;96013.06;;;-0.99;100.00
61408;BME280;47274;43.054;25.146;2023-03-18T03:21:48;96008.19;;;-1.04;100.00
61408;BME280;47274;43.054;25.146;2023-03-18T03:24:15;96007.59;;;-1.09;100.00
61408;BME280;47274;43.054;25.146;2023-03-18T03:26:40;96001.56;;;-1.06;100.00
61408;BME280;47274;43.054;25.146;2023-03-18T03:29:06;96001.16;;;-0.96;100.00
61408;BME280;47274;43.054;25.146;2023-03-18T03:31:32;96001.28;;;-0.99;100.00
61408;BME280;47274;43.054;25.146;2023-03-18T03:33:58;95997.81;;;-1.16;100.00
61408;BME280;47274;43.054;25.146;2023-03-18T03:36:24;95997.81;;;-1.16;100.00
61408;BME280;47274;43.054;25.146;2023-03-18T03:38:50;96000.31;;;-1.16;100.00
61408;BME280;47274;43.054;25.146;2023-03-18T03:41:16;96002.09;;;-0.98;100.00
61408;BME280;47274;43.054;25.146;2023-03-18T03:43:42;96004.94;;;-1.06;100.00
61408;BME280;47274;43.054;25.146;2023-03-18T03:46:08;95999.06;;;-1.06;100.00
61408;BME280;47274;43.054;25.146;2023-03-18T03:48:35;95998.56;;;-1.14;100.00
61408;BME280;47274;43.054;25.146;2023-03-18T03:51:04;95995.56;;;-1.02;100.00
61408;BME280;47274;43.054;25.146;2023-03-18T03:53:31;95992.06;;;-1.00;100.00
61408;BME280;47274;43.054;25.146;2023-03-18T03:55:58;95992.19;;;-1.03;100.00
61408;BME280;47274;43.054;25.146;2023-03-18T03:58:24;95985.03;;;-0.91;100.00
61408;BME280;47274;43.054;25.146;2023-03-18T04:00:50;95984.16;;;-0.72;100.00
61408;BME280;47274;43.054;25.146;2023-03-18T04:03:16;95979.22;;;-0.54;100.00
61408;BME280;47274;43.054;25.146;2023-03-18T04:05:42;95986.91;;;-0.57;100.00
61408;BME280;47274;43.054;25.146;2023-03-18T04:08:08;95976.75;;;-0.56;100.00
61408;BME280;47274;43.054;25.146;2023-03-18T04:10:38;95984.31;;;-0.56;100.00
61408;BME280;47274;43.054;25.146;2023-03-18T04:13:10;95974.72;;;-0.47;100.00
61408;BME280;47274;43.054;25.146;2023-03-18T04:15:41;95971.34;;;-0.48;100.00
61408;BME280;47274;43.054;25.146;2023-03-18T04:18:13;95976.22;;;-0.43;100.00
61408;BME280;47274;43.054;25.146;2023-03-18T04:20:40;95971.72;;;-0.37;100.00
61408;BME280;47274;43.054;25.146;2023-03-18T04:23:14;95978.94;;;-0.29;100.00
61408;BME280;47274;43.054;25.146;2023-03-18T04:25:40;95983.03;;;-0.27;100.00
61408;BME280;47274;43.054;25.146;2023-03-18T04:28:05;95977.22;;;-0.29;100.00
61408;BME280;47274;43.054;25.146;2023-03-18T04:30:35;95982.22;;;-0.27;100.00
61408;BME280;47274;43.054;25.146;2023-03-18T04:33:08;95979.06;;;-0.32;100.00
61408;BME280;47274;43.054;25.146;2023-03-18T04:35:37;95984.31;;;-0.56;100.00
61408;BME280;47274;43.054;25.146;2023-03-18T04:38:02;95978.03;;;-0.66;100.00
61408;BME280;47274;43.054;25.146;2023-03-18T04:40:29;95978.91;;;-0.67;100.00
61408;BME280;47274;43.054;25.146;2023-03-18T04:42:57;95982.00;;;-0.60;100.00
61408;BME280;47274;43.054;25.146;2023-03-18T04:45:26;95974.03;;;-0.51;100.00
61408;BME280;47274;43.054;25.146;2023-03-18T04:47:55;95979.16;;;-0.34;100.00
61408;BME280;47274;43.054;25.146;2023-03-18T04:50:21;95982.88;;;-0.23;100.00
61408;BME280;47274;43.054;25.146;2023-03-18T04:52:48;95984.44;;;-0.21;100.00
61408;BME280;47274;43.054;25.146;2023-03-18T04:55:19;95981.84;;;-0.19;100.00
61408;BME280;47274;43.054;25.146;2023-03-18T04:57:46;95991.00;;;-0.17;100.00
61408;BME280;47274;43.054;25.146;2023-03-18T05:00:16;95989.19;;;-0.15;100.00
61408;BME280;47274;43.054;25.146;2023-03-18T05:02:45;95997.59;;;-0.14;100.00
61408;BME280;47274;43.054;25.146;2023-03-18T05:05:11;95999.28;;;-0.15;100.00
61408;BME280;47274;43.054;25.146;2023-03-18T05:07:45;95985.88;;;-0.15;100.00
61408;BME280;47274;43.054;25.146;2023-03-18T05:10:13;95988.16;;;-0.11;100.00
61408;BME280;47274;43.054;25.146;2023-03-18T05:12:39;95980.59;;;-0.11;100.00
61408;BME280;47274;43.054;25.146;2023-03-18T05:15:09;95975.38;;;-0.06;100.00
61408;BME280;47274;43.054;25.146;2023-03-18T05:17:40;95984.16;;;0.04;100.00
61408;BME280;47274;43.054;25.146;2023-03-18T05:20:06;95988.00;;;0.11;100.00
61408;BME280;47274;43.054;25.146;2023-03-18T05:22:34;95982.69;;;0.17;100.00
61408;BME280;47274;43.054;25.146;2023-03-18T05:25:12;95988.53;;;0.18;100.00
61408;BME280;47274;43.054;25.146;2023-03-18T05:27:39;95989.38;;;0.18;100.00
61408;BME280;47274;43.054;25.146;2023-03-18T05:30:12;95997.66;;;0.20;100.00
61408;BME280;47274;43.054;25.146;2023-03-18T05:32:44;96003.47;;;0.22;100.00
61408;BME280;47274;43.054;25.146;2023-03-18T05:35:11;96003.41;;;0.24;100.00
61408;BME280;47274;43.054;25.146;2023-03-18T05:37:45;95999.19;;;0.25;100.00
61408;BME280;47274;43.054;25.146;2023-03-18T05:40:12;96016.84;;;0.25;100.00
61408;BME280;47274;43.054;25.146;2023-03-18T05:42:43;96013.69;;;0.19;100.00
61408;BME280;47274;43.054;25.146;2023-03-18T05:45:11;96027.09;;;0.03;100.00
61408;BME280;47274;43.054;25.146;2023-03-18T05:47:46;96025.31;;;-0.14;100.00
61408;BME280;47274;43.054;25.146;2023-03-18T05:50:13;96025.19;;;-0.11;100.00
61408;BME280;47274;43.054;25.146;2023-03-18T05:52:39;96035.09;;;-0.07;100.00
61408;BME280;47274;43.054;25.146;2023-03-18T05:55:12;96035.63;;;0.00;100.00
61408;BME280;47274;43.054;25.146;2023-03-18T05:57:41;96032.34;;;-0.02;100.00
61408;BME280;47274;43.054;25.146;2023-03-18T06:00:08;96028.34;;;-0.06;100.00
61408;BME280;47274;43.054;25.146;2023-03-18T06:02:43;96032.34;;;-0.02;100.00
61408;BME280;47274;43.054;25.146;2023-03-18T06:05:10;96031.28;;;0.04;100.00
61408;BME280;47274;43.054;25.146;2023-03-18T06:07:37;96031.78;;;0.10;100.00
61408;BME280;47274;43.054;25.146;2023-03-18T06:10:03;96031.50;;;0.16;100.00
61408;BME280;47274;43.054;25.146;2023-03-18T06:12:31;96040.28;;;0.27;100.00
61408;BME280;47274;43.054;25.146;2023-03-18T06:14:57;96038.25;;;0.35;100.00
61408;BME280;47274;43.054;25.146;2023-03-18T06:17:24;96042.03;;;0.43;100.00
61408;BME280;47274;43.054;25.146;2023-03-18T06:19:50;96045.72;;;0.55;100.00
61408;BME280;47274;43.054;25.146;2023-03-18T06:22:18;96044.53;;;0.62;100.00
61408;BME280;47274;43.054;25.146;2023-03-18T06:24:43;96052.31;;;0.75;100.00
61408;BME280;47274;43.054;25.146;2023-03-18T06:27:09;96052.91;;;0.80;100.00
61408;BME280;47274;43.054;25.146;2023-03-18T06:29:38;96059.22;;;0.89;100.00
61408;BME280;47274;43.054;25.146;2023-03-18T06:32:09;96054.19;;;1.06;100.00
61408;BME280;47274;43.054;25.146;2023-03-18T06:34:35;96063.63;;;1.20;100.00
61408;BME280;47274;43.054;25.146;2023-03-18T06:37:02;96059.50;;;1.35;100.00
61408;BME280;47274;43.054;25.146;2023-03-18T06:39:30;96061.13;;;1.69;100.00
61408;BME280;47274;43.054;25.146;2023-03-18T06:41:57;96065.88;;;1.75;99.88
61408;BME280;47274;43.054;25.146;2023-03-18T06:44:45;96073.78;;;1.69;99.78
61408;BME280;47274;43.054;25.146;2023-03-18T06:47:19;96073.28;;;1.62;98.92
61408;BME280;47274;43.054;25.146;2023-03-18T06:49:52;96079.34;;;1.76;99.54
61408;BME280;47274;43.054;25.146;2023-03-18T06:52:25;96078.88;;;1.85;98.24
61408;BME280;47274;43.054;25.146;2023-03-18T06:54:56;96081.03;;;2.40;97.64
61408;BME280;47274;43.054;25.146;2023-03-18T06:57:22;96081.44;;;2.94;95.79
61408;BME280;47274;43.054;25.146;2023-03-18T06:59:48;96079.88;;;3.22;91.93
61408;BME280;47274;43.054;25.146;2023-03-18T07:02:15;96087.78;;;3.01;89.03
61408;BME280;47274;43.054;25.146;2023-03-18T07:04:41;96081.44;;;2.94;87.99
61408;BME280;47274;43.054;25.146;2023-03-18T07:07:07;96085.78;;;3.37;88.91
61408;BME280;47274;43.054;25.146;2023-03-18T07:09:34;96081.38;;;3.83;85.13
61408;BME280;47274;43.054;25.146;2023-03-18T07:12:01;96084.06;;;3.66;80.78
61408;BME280;47274;43.054;25.146;2023-03-18T07:14:27;96089.34;;;3.77;80.87
61408;BME280;47274;43.054;25.146;2023-03-18T07:16:55;96084.00;;;3.82;81.08
61408;BME280;47274;43.054;25.146;2023-03-18T07:19:21;96082.25;;;3.82;84.31
61408;BME280;47274;43.054;25.146;2023-03-18T07:21:47;96090.59;;;3.11;82.69
61408;BME280;47274;43.054;25.146;2023-03-18T07:24:16;96093.03;;;2.98;83.19
61408;BME280;47274;43.054;25.146;2023-03-18T07:26:43;96093.44;;;2.45;86.67
61408;BME280;47274;43.054;25.146;2023-03-18T07:29:09;96095.47;;;2.22;83.65
61408;BME280;47274;43.054;25.146;2023-03-18T07:31:36;96103.97;;;2.05;83.13
61408;BME280;47274;43.054;25.146;2023-03-18T07:34:02;96099.16;;;2.32;75.88
61408;BME280;47274;43.054;25.146;2023-03-18T07:36:29;96095.78;;;3.09;69.25
61408;BME280;47274;43.054;25.146;2023-03-18T07:38:55;96098.03;;;3.59;69.45
61408;BME280;47274;43.054;25.146;2023-03-18T07:41:22;96095.69;;;3.98;69.25
61408;BME280;47274;43.054;25.146;2023-03-18T07:43:48;96105.19;;;4.09;66.88
61408;BME280;47274;43.054;25.146;2023-03-18T07:46:13;96109.66;;;4.47;65.27
61408;BME280;47274;43.054;25.146;2023-03-18T07:48:39;96108.97;;;4.45;64.02
61408;BME280;47274;43.054;25.146;2023-03-18T07:51:07;96113.66;;;4.78;64.19
61408;BME280;47274;43.054;25.146;2023-03-18T07:53:33;96121.63;;;5.13;71.57
61408;BME280;47274;43.054;25.146;2023-03-18T07:56:00;96122.66;;;5.36;75.44
61408;BME280;47274;43.054;25.146;2023-03-18T07:58:26;96116.91;;;5.73;77.63
61408;BME280;47274;43.054;25.146;2023-03-18T08:00:52;96132.28;;;5.84;76.27
61408;BME280;47274;43.054;25.146;2023-03-18T08:03:18;96128.41;;;5.91;75.32
61408;BME280;47274;43.054;25.146;2023-03-18T08:05:44;96129.25;;;5.91;76.00
61408;BME280;47274;43.054;25.146;2023-03-18T08:08:12;96136.97;;;5.90;75.49
61408;BME280;47274;43.054;25.146;2023-03-18T08:10:37;96138.00;;;6.13;77.64
61408;BME280;47274;43.054;25.146;2023-03-18T08:13:03;96139.47;;;6.54;74.02
61408;BME280;47274;43.054;25.146;2023-03-18T08:15:28;96140.16;;;6.19;75.11
61408;BME280;47274;43.054;25.146;2023-03-18T08:17:54;96141.69;;;6.82;76.53
61408;BME280;47274;43.054;25.146;2023-03-18T08:20:20;96132.00;;;7.58;72.48
61408;BME280;47274;43.054;25.146;2023-03-18T08:22:45;96147.22;;;7.24;70.85
61408;BME280;47274;43.054;25.146;2023-03-18T08:25:11;96142.78;;;7.97;71.20
61408;BME280;47274;43.054;25.146;2023-03-18T08:27:37;96143.59;;;8.31;68.47
61408;BME280;47274;43.054;25.146;2023-03-18T08:30:03;96146.72;;;7.08;61.41
61408;BME280;47274;43.054;25.146;2023-03-18T08:32:29;96142.19;;;5.88;66.80
61408;BME280;47274;43.054;25.146;2023-03-18T08:34:57;96142.88;;;5.65;66.59
61408;BME280;47274;43.054;25.146;2023-03-18T08:37:23;96148.34;;;5.46;66.47
61408;BME280;47274;43.054;25.146;2023-03-18T08:39:49;96150.91;;;5.84;63.51
61408;BME280;47274;43.054;25.146;2023-03-18T08:42:14;96149.16;;;6.49;58.44
61408;BME280;47274;43.054;25.146;2023-03-18T08:44:43;96145.78;;;7.09;56.64
61408;BME280;47274;43.054;25.146;2023-03-18T08:47:09;96148.97;;;5.88;55.05
61408;BME280;47274;43.054;25.146;2023-03-18T08:49:35;96159.94;;;5.50;56.20
61408;BME280;47274;43.054;25.146;2023-03-18T08:52:01;96150.81;;;6.24;57.16
61408;BME280;47274;43.054;25.146;2023-03-18T08:54:30;96145.56;;;6.88;54.12
61408;BME280;47274;43.054;25.146;2023-03-18T08:56:56;96149.00;;;7.11;53.06
61408;BME280;47274;43.054;25.146;2023-03-18T08:59:22;96141.94;;;7.39;52.09
61408;BME280;47274;43.054;25.146;2023-03-18T09:01:47;96154.63;;;6.92;52.68
61408;BME280;47274;43.054;25.146;2023-03-18T09:04:13;96154.38;;;6.84;48.99
61408;BME280;47274;43.054;25.146;2023-03-18T09:06:39;96152.06;;;6.68;53.37
61408;BME280;47274;43.054;25.146;2023-03-18T09:09:06;96154.22;;;6.61;48.67
61408;BME280;47274;43.054;25.146;2023-03-18T09:11:31;96155.16;;;6.48;50.91
61408;BME280;47274;43.054;25.146;2023-03-18T09:14:00;96160.22;;;6.11;50.88
61408;BME280;47274;43.054;25.146;2023-03-18T09:16:26;96157.06;;;6.20;51.76
61408;BME280;47274;43.054;25.146;2023-03-18T09:18:53;96160.56;;;5.54;50.91
61408;BME280;47274;43.054;25.146;2023-03-18T09:21:18;96155.47;;;5.54;54.31
61408;BME280;47274;43.054;25.146;2023-03-18T09:23:45;96162.94;;;5.82;52.27
61408;BME280;47274;43.054;25.146;2023-03-18T09:26:10;96160.91;;;5.62;52.11
61408;BME280;47274;43.054;25.146;2023-03-18T09:28:36;96161.91;;;5.19;51.71
61408;BME280;47274;43.054;25.146;2023-03-18T09:31:02;96165.00;;;5.25;55.23
61408;BME280;47274;43.054;25.146;2023-03-18T09:33:28;96159.66;;;5.15;51.61
61408;BME280;47274;43.054;25.146;2023-03-18T09:35:54;96168.22;;;5.14;54.42
61408;BME280;47274;43.054;25.146;2023-03-18T09:38:20;96162.22;;;5.15;54.22
61408;BME280;47274;43.054;25.146;2023-03-18T09:48:43;96176.63;;;5.02;55.06
61408;BME280;47274;43.054;25.146;2023-03-18T09:54:04;96167.31;;;4.46;56.28
61408;BME280;47274;43.054;25.146;2023-03-18T09:56:35;96169.00;;;4.60;55.64
61408;BME280;47274;43.054;25.146;2023-03-18T09:59:19;96168.91;;;4.76;55.17
61408;BME280;47274;43.054;25.146;2023-03-18T10:01:48;96162.56;;;4.55;55.95
61408;BME280;47274;43.054;25.146;2023-03-18T10:04:32;96159.78;;;4.86;54.06
61408;BME280;47274;43.054;25.146;2023-03-18T10:07:05;96155.16;;;5.06;53.12
61408;BME280;47274;43.054;25.146;2023-03-18T10:09:49;96159.28;;;5.61;54.15
61408;BME280;47274;43.054;25.146;2023-03-18T10:15:18;96148.44;;;6.47;50.05
61408;BME280;47274;43.054;25.146;2023-03-18T10:17:56;96159.09;;;7.01;48.59
61408;BME280;47274;43.054;25.146;2023-03-18T10:23:15;96163.09;;;7.17;49.69
61408;BME280;47274;43.054;25.146;2023-03-18T12:32:37;96050.06;;;10.67;43.25
61408;BME280;47274;43.054;25.146;2023-03-18T12:45:46;96055.47;;;8.35;45.22
61408;BME280;47274;43.054;25.146;2023-03-18T12:48:17;96047.00;;;8.78;45.73
61408;BME280;47274;43.054;25.146;2023-03-18T12:50:49;96049.22;;;9.04;42.71
61408;BME280;47274;43.054;25.146;2023-03-18T12:53:23;96050.34;;;8.78;41.94
61408;BME280;47274;43.054;25.146;2023-03-18T12:56:23;96049.28;;;8.60;43.58
61408;BME280;47274;43.054;25.146;2023-03-18T12:58:53;96051.44;;;7.99;42.82
61408;BME280;47274;43.054;25.146;2023-03-18T13:01:26;96044.34;;;9.00;45.18
61408;BME280;47274;43.054;25.146;2023-03-18T13:04:06;96049.78;;;9.49;45.39
61408;BME280;47274;43.054;25.146;2023-03-18T13:06:45;96050.03;;;9.77;44.87
61408;BME280;47274;43.054;25.146;2023-03-18T13:14:59;96043.41;;;9.95;45.16
61408;BME280;47274;43.054;25.146;2023-03-18T13:17:11;96047.91;;;10.22;45.14
61408;BME280;47274;43.054;25.146;2023-03-18T13:19:39;96040.03;;;10.44;44.90
61408;BME280;47274;43.054;25.146;2023-03-18T13:27:28;96031.94;;;9.38;44.21
61408;BME280;47274;43.054;25.146;2023-03-18T13:35:04;96041.69;;;8.38;45.88
61408;BME280;47274;43.054;25.146;2023-03-18T13:42:39;96035.03;;;9.62;44.66
61408;BME280;47274;43.054;25.146;2023-03-18T13:47:38;96026.38;;;9.63;44.93
61408;BME280;47274;43.054;25.146;2023-03-18T13:52:43;96032.34;;;9.22;44.89
61408;BME280;47274;43.054;25.146;2023-03-18T13:55:23;96036.75;;;9.10;43.96
61408;BME280;47274;43.054;25.146;2023-03-18T14:00:24;96044.72;;;8.64;44.81
61408;BME280;47274;43.054;25.146;2023-03-18T14:03:11;96038.47;;;8.57;45.35
61408;BME280;47274;43.054;25.146;2023-03-18T14:05:39;96033.06;;;8.16;45.86
61408;BME280;47274;43.054;25.146;2023-03-18T14:08:51;96028.28;;;8.23;46.00
61408;BME280;47274;43.054;25.146;2023-03-18T14:13:37;96025.59;;;8.79;45.18
61408;BME280;47274;43.054;25.146;2023-03-18T14:16:07;96023.16;;;8.98;45.79
61408;BME280;47274;43.054;25.146;2023-03-18T14:18:33;96022.19;;;8.90;45.70
61408;BME280;47274;43.054;25.146;2023-03-18T14:21:01;96027.91;;;8.50;45.75
61408;BME280;47274;43.054;25.146;2023-03-18T14:23:42;96026.72;;;8.54;45.92
61408;BME280;47274;43.054;25.146;2023-03-18T14:26:22;96023.78;;;8.38;46.43
61408;BME280;47274;43.054;25.146;2023-03-18T14:28:55;96035.78;;;8.03;46.37
61408;BME280;47274;43.054;25.146;2023-03-18T14:39:12;96034.84;;;7.59;47.02
61408;BME280;47274;43.054;25.146;2023-03-18T14:41:40;96039.16;;;7.59;46.62
61408;BME280;47274;43.054;25.146;2023-03-18T14:44:07;96041.94;;;7.67;47.03
61408;BME280;47274;43.054;25.146;2023-03-18T14:46:43;96031.00;;;7.65;47.46
61408;BME280;47274;43.054;25.146;2023-03-18T14:52:26;96046.03;;;7.23;47.94
61408;BME280;47274;43.054;25.146;2023-03-18T14:54:55;96050.50;;;7.44;47.88
61408;BME280;47274;43.054;25.146;2023-03-18T14:57:23;96039.56;;;7.42;47.14
61408;BME280;47274;43.054;25.146;2023-03-18T14:59:49;96047.94;;;7.44;48.17
61408;BME280;47274;43.054;25.146;2023-03-18T15:02:23;96045.16;;;7.35;47.75
61408;BME280;47274;43.054;25.146;2023-03-18T15:04:54;96046.28;;;7.31;48.52
61408;BME280;47274;43.054;25.146;2023-03-18T15:07:22;96043.72;;;7.20;48.94
61408;BME280;47274;43.054;25.146;2023-03-18T15:09:49;96051.31;;;6.98;49.19
61408;BME280;47274;43.054;25.146;2023-03-18T15:12:21;96057.13;;;7.00;49.68
61408;BME280;47274;43.054;25.146;2023-03-18T15:14:49;96055.53;;;6.75;50.25
61408;BME280;47274;43.054;25.146;2023-03-18T15:17:16;96059.53;;;6.66;50.07
61408;BME280;47274;43.054;25.146;2023-03-18T15:19:42;96056.50;;;6.61;49.47
61408;BME280;47274;43.054;25.146;2023-03-18T15:22:08;96060.88;;;6.59;50.36
61408;BME280;47274;43.054;25.146;2023-03-18T15:24:43;96045.59;;;6.35;50.51
61408;BME280;47274;43.054;25.146;2023-03-18T15:27:12;96062.41;;;6.37;50.42
61408;BME280;47274;43.054;25.146;2023-03-18T15:29:54;96063.34;;;6.36;50.45
61408;BME280;47274;43.054;25.146;2023-03-18T15:32:31;96059.19;;;6.23;50.75
61408;BME280;47274;43.054;25.146;2023-03-18T15:37:37;96068.09;;;6.04;51.31
61408;BME280;47274;43.054;25.146;2023-03-18T15:42:47;96074.09;;;5.78;52.27
61408;BME280;47274;43.054;25.146;2023-03-18T15:45:17;96073.00;;;5.56;52.58
61408;BME280;47274;43.054;25.146;2023-03-18T15:47:45;96077.25;;;5.43;53.45
61408;BME280;47274;43.054;25.146;2023-03-18T15:52:44;96078.00;;;5.45;53.35
61408;BME280;47274;43.054;25.146;2023-03-18T15:55:24;96081.03;;;5.37;53.04
61408;BME280;47274;43.054;25.146;2023-03-18T15:57:52;96086.41;;;5.33;52.39
61408;BME280;47274;43.054;25.146;2023-03-18T16:00:19;96084.50;;;5.23;52.68
61408;BME280;47274;43.054;25.146;2023-03-18T16:02:45;96090.66;;;5.07;53.31
61408;BME280;47274;43.054;25.146;2023-03-18T16:05:14;96094.09;;;5.06;53.73
61408;BME280;47274;43.054;25.146;2023-03-18T16:07:41;96092.47;;;5.05;53.98
61408;BME280;47274;43.054;25.146;2023-03-18T16:10:07;96092.06;;;4.98;53.63
61408;BME280;47274;43.054;25.146;2023-03-18T16:12:34;96095.91;;;4.91;53.91
61408;BME280;47274;43.054;25.146;2023-03-18T16:15:00;96090.41;;;4.84;54.60
61408;BME280;47274;43.054;25.146;2023-03-18T16:17:27;96090.88;;;4.77;54.88
61408;BME280;47274;43.054;25.146;2023-03-18T16:19:55;96095.25;;;4.74;54.44
61408;BME280;47274;43.054;25.146;2023-03-18T16:22:21;96108.31;;;4.56;55.55
61408;BME280;47274;43.054;25.146;2023-03-18T16:24:47;96104.41;;;4.50;55.65